Weather at El Eden Airport

Public forecast

Using degrees Celsius for public forecast. Weather courtesy of forecast.io.

Current aviation weather report (METAR) for El Eden Airport

Report is more than 6 hours old.

Retrieved 2021/04/07 01:00 UTC (4 days ago):

SKAR 070100Z 00000KT 9999 SCT017 20/19 Q1016 RMK A3002

Aviation forecast (TAF) for El Eden Airport

Forecast is more than 12 hours old.

Retrieved 2020/12/14 06:45 UTC (4 months ago):

TAF SKAR 140430Z 1406/1506NIL